Time;durP1;ratioP1;P1;durP2;ratioP2;P2;SDS_P1;SDS_P2;PMS_P1;PMS_P2;Temp;Humidity;BMP_temperature;BMP_pressure;BME280_temperature;BME280_humidity;BME280_pressure;Samples;Min_cycle;Max_cycle;Signal;HPM_P1;HPM_P2
2020/12/28 00:02:24;;;;;;;11.68;9.70;;;1.80;99.90;;;;;;4955730;29;20379;-41
2020/12/28 00:04:51;;;;;;;9.67;8.27;;;1.70;99.90;;;;;;4955444;29;20212;-41
2020/12/28 00:07:18;;;;;;;11.93;9.33;;;1.70;99.90;;;;;;4954992;29;20208;-42
2020/12/28 00:09:45;;;;;;;11.65;9.95;;;1.70;99.90;;;;;;4954846;29;20207;-42
2020/12/28 00:12:17;;;;;;;11.70;9.35;;;1.60;99.90;;;;;;4947278;29;20293;-40
2020/12/28 00:14:45;;;;;;;11.63;9.23;;;1.60;99.90;;;;;;4954907;28;20326;-43
2020/12/28 00:17:12;;;;;;;11.53;9.40;;;1.60;99.90;;;;;;4955223;29;20211;-44
2020/12/28 00:19:40;;;;;;;13.27;9.70;;;1.70;99.90;;;;;;4955254;29;20310;-43
2020/12/28 00:22:07;;;;;;;9.07;8.13;;;1.70;99.90;;;;;;4955468;29;20347;-41
2020/12/28 00:24:34;;;;;;;13.07;9.35;;;1.80;99.90;;;;;;4955528;29;20294;-41
2020/12/28 00:27:01;;;;;;;11.33;9.20;;;1.90;99.90;;;;;;4955160;29;20662;-43
2020/12/28 00:29:28;;;;;;;10.57;9.13;;;1.90;99.90;;;;;;4955078;29;20730;-43
2020/12/28 00:31:57;;;;;;;11.93;9.88;;;2.00;99.90;;;;;;4955278;29;20238;-42
2020/12/28 00:34:24;;;;;;;12.03;9.47;;;2.10;99.90;;;;;;4954913;29;20714;-42
2020/12/28 00:36:51;;;;;;;11.70;10.50;;;2.10;99.90;;;;;;4954804;29;20683;-41
2020/12/28 00:39:18;;;;;;;10.03;9.03;;;2.10;99.90;;;;;;4954443;28;20207;-41
2020/12/28 00:41:45;;;;;;;10.87;9.40;;;2.00;99.90;;;;;;4955065;29;20207;-42
2020/12/28 00:44:12;;;;;;;9.83;8.53;;;2.00;99.90;;;;;;4955484;29;20204;-42
2020/12/28 00:46:40;;;;;;;10.47;9.20;;;2.00;99.90;;;;;;4954786;29;20266;-42
2020/12/28 00:49:08;;;;;;;10.00;8.83;;;2.00;99.90;;;;;;4955014;29;20258;-42
2020/12/28 00:51:34;;;;;;;12.03;9.67;;;2.00;99.90;;;;;;4954766;29;20314;-43
2020/12/28 00:54:01;;;;;;;11.50;9.23;;;1.90;99.90;;;;;;4954685;29;20238;-43
2020/12/28 00:56:28;;;;;;;10.23;9.13;;;2.00;99.90;;;;;;4954824;29;20226;-45
2020/12/28 00:58:56;;;;;;;10.40;9.30;;;2.00;99.90;;;;;;4954524;29;20613;-44
2020/12/28 01:01:22;;;;;;;10.38;9.25;;;2.00;99.90;;;;;;4954604;29;20311;-45
2020/12/28 01:03:49;;;;;;;14.13;12.07;;;2.00;99.90;;;;;;4954701;29;20258;-42
2020/12/28 01:06:17;;;;;;;11.73;10.63;;;2.00;99.90;;;;;;4954632;29;20207;-41
2020/12/28 01:08:44;;;;;;;15.18;13.65;;;2.10;99.90;;;;;;4954491;28;20219;-41
2020/12/28 01:11:11;;;;;;;15.27;13.70;;;2.10;99.90;;;;;;4954448;28;20349;-40
2020/12/28 01:13:38;;;;;;;9.77;8.80;;;2.10;99.90;;;;;;4954208;29;20322;-45
2020/12/28 01:16:11;;;;;;;15.57;13.97;;;2.10;99.90;;;;;;4954222;29;20294;-42
2020/12/28 01:18:38;;;;;;;14.03;9.40;;;2.10;99.90;;;;;;4954411;29;20211;-41
2020/12/28 01:21:05;;;;;;;10.85;8.40;;;2.20;99.90;;;;;;4954228;29;20270;-42
2020/12/28 01:23:32;;;;;;;14.55;9.13;;;2.20;99.90;;;;;;4954257;29;20218;-42
2020/12/28 01:25:59;;;;;;;9.38;8.38;;;2.20;99.90;;;;;;4954370;28;20216;-44
2020/12/28 01:28:26;;;;;;;11.57;9.27;;;2.30;99.90;;;;;;4954006;29;20239;-42
2020/12/28 01:30:54;;;;;;;10.80;8.82;;;2.30;99.90;;;;;;4954400;29;20246;-43
2020/12/28 01:33:21;;;;;;;14.82;12.07;;;2.30;99.90;;;;;;4954209;29;20303;-47
2020/12/28 01:35:48;;;;;;;12.05;10.88;;;2.30;99.90;;;;;;4954164;29;20314;-44
2020/12/28 01:38:16;;;;;;;12.73;10.50;;;2.40;99.90;;;;;;4953989;28;20639;-46
2020/12/28 01:40:44;;;;;;;11.45;10.25;;;2.30;99.90;;;;;;4954003;29;20306;-44
2020/12/28 01:43:10;;;;;;;11.40;9.20;;;2.30;99.90;;;;;;4954146;29;20247;-45
2020/12/28 01:45:37;;;;;;;12.50;8.97;;;2.30;99.90;;;;;;4953899;29;20658;-40
2020/12/28 01:48:04;;;;;;;8.43;7.63;;;2.40;99.90;;;;;;4953768;29;20257;-40
2020/12/28 01:50:31;;;;;;;10.03;8.40;;;2.40;99.90;;;;;;4954058;29;20298;-41
2020/12/28 01:52:58;;;;;;;10.30;8.77;;;2.40;99.90;;;;;;4953877;29;20243;-40
2020/12/28 01:55:26;;;;;;;12.57;9.10;;;2.40;99.90;;;;;;4953704;29;20227;-43
2020/12/28 01:57:55;;;;;;;9.53;7.80;;;2.30;99.90;;;;;;4953935;29;20543;-40
2020/12/28 02:00:22;;;;;;;16.10;13.88;;;2.30;99.90;;;;;;4953920;29;20215;-41
2020/12/28 02:02:50;;;;;;;19.25;15.02;;;2.30;99.90;;;;;;4953728;29;20757;-41
2020/12/28 02:05:17;;;;;;;23.08;16.80;;;2.30;99.90;;;;;;4953723;29;20217;-40
2020/12/28 02:07:46;;;;;;;16.83;13.23;;;2.20;99.90;;;;;;4953850;29;20207;-42
2020/12/28 02:10:13;;;;;;;13.53;11.70;;;2.30;99.90;;;;;;4953724;29;20314;-42
2020/12/28 02:12:40;;;;;;;17.70;13.35;;;2.20;99.90;;;;;;4954030;29;20282;-42
2020/12/28 02:15:08;;;;;;;15.43;11.60;;;2.20;99.90;;;;;;4953416;29;20438;-42
2020/12/28 02:17:34;;;;;;;18.65;14.10;;;2.20;99.90;;;;;;4953743;29;20290;-41
2020/12/28 02:20:02;;;;;;;24.83;18.40;;;2.30;99.90;;;;;;4953660;29;20370;-41
2020/12/28 02:22:30;;;;;;;12.73;10.32;;;2.20;99.90;;;;;;4953676;28;20634;-41
2020/12/28 02:24:57;;;;;;;20.20;16.07;;;2.30;99.90;;;;;;4953678;29;20215;-41
2020/12/28 02:27:24;;;;;;;11.03;9.83;;;2.30;99.90;;;;;;4953736;29;20578;-41
2020/12/28 02:29:51;;;;;;;14.85;10.50;;;2.30;99.90;;;;;;4953428;29;20306;-41
2020/12/28 02:32:18;;;;;;;20.65;15.43;;;2.30;99.90;;;;;;4953845;29;20302;-42
2020/12/28 02:34:45;;;;;;;11.55;10.32;;;2.30;99.90;;;;;;4953536;29;20235;-41
2020/12/28 02:37:12;;;;;;;11.93;10.63;;;2.40;99.90;;;;;;4953455;29;20688;-41
2020/12/28 02:39:41;;;;;;;11.27;9.70;;;2.40;99.90;;;;;;4953610;29;20243;-41
2020/12/28 02:42:08;;;;;;;10.67;9.57;;;2.40;99.90;;;;;;4953595;29;20245;-44
2020/12/28 02:44:35;;;;;;;10.13;8.93;;;2.50;99.90;;;;;;4953567;29;20294;-43
2020/12/28 02:47:01;;;;;;;12.70;9.70;;;2.50;99.90;;;;;;4953404;28;20347;-45
2020/12/28 02:49:28;;;;;;;12.48;9.50;;;2.50;99.90;;;;;;4953285;29;20663;-41
2020/12/28 02:51:55;;;;;;;11.63;8.98;;;2.60;99.90;;;;;;4953179;29;20234;-41
2020/12/28 02:54:22;;;;;;;8.88;7.85;;;2.60;99.90;;;;;;4953308;29;20251;-44
2020/12/28 02:56:50;;;;;;;10.25;9.13;;;2.70;99.90;;;;;;4953621;29;20207;-47
2020/12/28 02:59:17;;;;;;;11.97;9.57;;;2.70;99.90;;;;;;4953480;29;20310;-40
2020/12/28 03:01:44;;;;;;;9.90;8.90;;;2.70;99.90;;;;;;4955085;28;20222;-41
2020/12/28 03:04:11;;;;;;;9.88;8.98;;;2.70;99.90;;;;;;4956657;29;20299;-42
2020/12/28 03:06:38;;;;;;;11.10;10.00;;;2.70;99.90;;;;;;4956697;29;20327;-42
2020/12/28 03:09:05;;;;;;;11.27;9.63;;;2.70;99.90;;;;;;4956920;29;20218;-46
2020/12/28 03:11:32;;;;;;;9.57;8.53;;;2.60;99.90;;;;;;4956756;29;20306;-46
2020/12/28 03:14:00;;;;;;;10.02;9.02;;;2.50;99.90;;;;;;4956679;29;20419;-43
2020/12/28 03:16:27;;;;;;;11.90;9.20;;;2.50;99.90;;;;;;4956492;29;20627;-42
2020/12/28 03:18:54;;;;;;;11.90;9.70;;;2.40;99.90;;;;;;4956500;29;20207;-45
2020/12/28 03:21:21;;;;;;;10.97;9.30;;;2.40;99.90;;;;;;4956532;29;20212;-45
2020/12/28 03:23:48;;;;;;;11.97;9.30;;;2.50;99.90;;;;;;4956459;29;20294;-48
2020/12/28 03:26:16;;;;;;;9.52;8.63;;;2.60;99.90;;;;;;4956359;29;20208;-45
2020/12/28 03:28:47;;;;;;;11.80;8.80;;;2.70;99.90;;;;;;4956362;29;20274;-46
2020/12/28 03:31:15;;;;;;;9.05;8.15;;;2.70;99.90;;;;;;4956147;29;20246;-45
2020/12/28 03:33:42;;;;;;;9.10;8.03;;;2.80;99.90;;;;;;4956466;29;20294;-47
2020/12/28 03:36:10;;;;;;;9.50;8.27;;;2.90;99.90;;;;;;4956246;28;20298;-44
2020/12/28 03:38:37;;;;;;;9.35;7.97;;;2.90;99.90;;;;;;4956000;29;20247;-45
2020/12/28 03:41:03;;;;;;;10.73;8.87;;;2.90;99.90;;;;;;4956173;29;20258;-44
2020/12/28 03:43:30;;;;;;;8.93;8.00;;;2.80;99.90;;;;;;4956127;29;20262;-43
2020/12/28 03:45:58;;;;;;;10.23;8.27;;;2.70;99.90;;;;;;4955992;29;20244;-42
2020/12/28 03:48:26;;;;;;;11.02;8.18;;;2.70;99.90;;;;;;4955970;29;20251;-42
2020/12/28 03:50:53;;;;;;;8.77;7.97;;;2.60;99.90;;;;;;4956130;29;20218;-42
2020/12/28 03:53:20;;;;;;;8.50;7.55;;;2.60;99.90;;;;;;4956071;29;20313;-41
2020/12/28 03:55:47;;;;;;;9.45;8.13;;;2.70;99.90;;;;;;4955927;29;20224;-43
2020/12/28 03:58:14;;;;;;;9.60;7.70;;;2.70;99.90;;;;;;4955831;29;20254;-46
2020/12/28 04:00:41;;;;;;;11.70;8.67;;;2.60;99.90;;;;;;4955686;29;20307;-43
2020/12/28 04:03:08;;;;;;;13.17;8.80;;;2.50;99.90;;;;;;4955884;29;20262;-43
2020/12/28 04:05:36;;;;;;;9.47;8.50;;;2.40;99.90;;;;;;4955837;29;20265;-44
2020/12/28 04:08:06;;;;;;;9.63;8.27;;;2.20;99.90;;;;;;4955584;29;20250;-41
2020/12/28 04:10:33;;;;;;;9.23;8.33;;;2.20;99.90;;;;;;4955596;29;20615;-42
2020/12/28 04:13:00;;;;;;;9.43;8.47;;;2.20;99.90;;;;;;4954298;28;20580;-40
2020/12/28 04:15:27;;;;;;;10.80;7.87;;;2.30;99.90;;;;;;4955515;29;20757;-41
2020/12/28 04:17:54;;;;;;;11.07;7.90;;;2.30;99.90;;;;;;4955710;29;20215;-41
2020/12/28 04:20:21;;;;;;;8.90;7.87;;;2.40;99.90;;;;;;4955210;29;20216;-41
2020/12/28 04:22:49;;;;;;;8.97;7.97;;;2.40;99.90;;;;;;4955511;29;20235;-40
2020/12/28 04:25:16;;;;;;;9.27;8.27;;;2.40;99.90;;;;;;4955316;29;20605;-39
2020/12/28 04:27:43;;;;;;;8.82;7.93;;;2.30;99.90;;;;;;4955072;28;20270;-40
2020/12/28 04:30:11;;;;;;;10.23;8.47;;;2.30;99.90;;;;;;4955332;29;20690;-40
2020/12/28 04:32:38;;;;;;;10.20;7.43;;;2.20;99.90;;;;;;4955077;29;20239;-40
2020/12/28 04:35:05;;;;;;;9.20;7.10;;;2.30;99.90;;;;;;4955225;29;20318;-41
2020/12/28 04:37:33;;;;;;;8.60;7.70;;;2.30;99.90;;;;;;4954811;29;20350;-40
2020/12/28 04:40:01;;;;;;;10.37;7.33;;;2.30;99.90;;;;;;4955064;29;20838;-41
2020/12/28 04:42:29;;;;;;;8.43;7.53;;;2.30;99.90;;;;;;4955205;29;20302;-42
2020/12/28 04:44:57;;;;;;;8.33;7.37;;;2.40;99.90;;;;;;4954873;29;20687;-42
2020/12/28 04:47:25;;;;;;;9.23;8.30;;;2.60;99.90;;;;;;4954804;29;20221;-47
2020/12/28 04:49:53;;;;;;;11.07;8.40;;;2.70;99.90;;;;;;4954858;28;20239;-44
2020/12/28 04:52:20;;;;;;;8.67;7.20;;;2.60;99.90;;;;;;4954760;29;20211;-43
2020/12/28 04:54:48;;;;;;;8.90;8.07;;;2.70;99.90;;;;;;4954667;29;20267;-44
2020/12/28 04:57:16;;;;;;;9.43;7.37;;;2.70;99.90;;;;;;4954999;29;20211;-43
2020/12/28 04:59:43;;;;;;;8.07;7.37;;;2.80;99.90;;;;;;4954800;29;20639;-44
2020/12/28 05:02:10;;;;;;;9.27;8.37;;;2.80;99.90;;;;;;4954851;29;20218;-43
2020/12/28 05:04:37;;;;;;;10.20;8.27;;;2.80;99.90;;;;;;4954628;29;20587;-41
2020/12/28 05:07:06;;;;;;;9.07;8.17;;;2.70;99.90;;;;;;4954384;29;20294;-42
2020/12/28 05:09:33;;;;;;;8.37;7.57;;;2.70;99.90;;;;;;4954502;29;20231;-41
2020/12/28 05:12:02;;;;;;;8.68;7.75;;;2.60;99.90;;;;;;4954409;29;20610;-40
2020/12/28 05:14:31;;;;;;;8.03;7.23;;;2.60;99.90;;;;;;4954265;29;20424;-40
2020/12/28 05:16:59;;;;;;;9.10;8.20;;;2.60;99.90;;;;;;4954486;29;20302;-40
2020/12/28 05:19:26;;;;;;;8.48;7.57;;;2.50;99.90;;;;;;4954381;29;20211;-40
2020/12/28 05:21:55;;;;;;;8.73;7.80;;;2.50;99.90;;;;;;4954192;29;20231;-40
2020/12/28 05:24:23;;;;;;;10.40;7.87;;;2.40;99.90;;;;;;4954067;28;20250;-40
2020/12/28 05:26:50;;;;;;;8.88;8.02;;;2.40;99.90;;;;;;4954251;29;20212;-40
2020/12/28 05:29:20;;;;;;;11.83;8.20;;;2.30;99.90;;;;;;4954286;29;20302;-41
2020/12/28 05:31:50;;;;;;;10.20;8.00;;;2.40;99.90;;;;;;4954315;29;20218;-40
2020/12/28 05:34:19;;;;;;;8.87;7.77;;;2.40;99.90;;;;;;4954152;29;20211;-40
2020/12/28 05:36:47;;;;;;;10.00;8.93;;;2.50;99.90;;;;;;4954212;29;20235;-42
2020/12/28 05:39:16;;;;;;;10.63;7.55;;;2.50;99.90;;;;;;4954332;29;20690;-43
2020/12/28 05:41:57;;;;;;;9.00;8.15;;;2.60;99.90;;;;;;4954263;29;20218;-41
2020/12/28 05:44:25;;;;;;;9.25;7.38;;;2.70;99.90;;;;;;4954167;29;20243;-41
2020/12/28 05:47:03;;;;;;;9.98;7.88;;;2.70;99.90;;;;;;4954295;29;20219;-41
2020/12/28 05:49:33;;;;;;;9.50;8.00;;;2.80;99.90;;;;;;4954249;29;20211;-41
2020/12/28 05:52:01;;;;;;;9.77;7.77;;;2.80;99.90;;;;;;4954042;29;20246;-41
2020/12/28 05:54:29;;;;;;;8.90;8.00;;;2.80;99.90;;;;;;4953923;28;20658;-42
2020/12/28 05:56:56;;;;;;;10.90;8.47;;;2.80;99.90;;;;;;4953952;28;20262;-42
2020/12/28 05:59:24;;;;;;;8.70;7.80;;;2.80;99.90;;;;;;4953833;29;20294;-43
2020/12/28 06:01:52;;;;;;;8.57;7.67;;;2.90;99.90;;;;;;4953839;28;20713;-49
2020/12/28 06:04:20;;;;;;;8.80;7.90;;;2.90;99.90;;;;;;4954060;29;20310;-44
2020/12/28 06:06:48;;;;;;;7.90;7.10;;;2.90;99.90;;;;;;4953823;28;20242;-41
2020/12/28 06:09:17;;;;;;;7.63;6.93;;;2.90;99.90;;;;;;4946371;29;20218;-45
2020/12/28 06:11:45;;;;;;;9.60;7.07;;;3.00;99.90;;;;;;4953748;29;20246;-49
2020/12/28 06:14:17;;;;;;;8.82;7.90;;;3.00;99.90;;;;;;4953760;29;20278;-47
2020/12/28 06:16:45;;;;;;;11.03;8.00;;;2.90;99.90;;;;;;4953898;29;20322;-43
2020/12/28 06:19:22;;;;;;;12.97;11.57;;;2.80;99.90;;;;;;4953721;28;20270;-42
2020/12/28 06:21:50;;;;;;;14.05;11.40;;;2.90;99.90;;;;;;4954115;29;20741;-43
2020/12/28 06:24:25;;;;;;;11.48;9.10;;;3.00;99.90;;;;;;4953682;29;20689;-43
2020/12/28 06:27:02;;;;;;;9.35;8.35;;;3.00;99.90;;;;;;4953890;29;20613;-44
2020/12/28 06:29:29;;;;;;;10.17;8.87;;;3.00;99.90;;;;;;4953666;29;20646;-46
2020/12/28 06:31:56;;;;;;;9.80;8.43;;;3.00;99.90;;;;;;4953586;29;20696;-43
2020/12/28 06:34:24;;;;;;;10.25;8.98;;;2.80;99.90;;;;;;4953734;29;20363;-46
2020/12/28 06:37:01;;;;;;;13.13;8.77;;;2.70;99.90;;;;;;4955384;28;20241;-43
2020/12/28 06:39:28;;;;;;;9.38;8.27;;;2.50;99.90;;;;;;4957127;29;20238;-40
2020/12/28 06:42:07;;;;;;;10.00;7.57;;;2.50;99.90;;;;;;4957377;28;20223;-42
2020/12/28 06:44:34;;;;;;;17.73;8.87;;;2.50;99.90;;;;;;4957148;29;20302;-42
2020/12/28 06:47:02;;;;;;;10.30;8.30;;;2.60;99.90;;;;;;4957515;29;20213;-42
2020/12/28 06:49:40;;;;;;;8.63;7.77;;;2.60;99.90;;;;;;4957262;29;20215;-41
2020/12/28 06:52:07;;;;;;;8.90;8.00;;;2.70;99.90;;;;;;4957127;29;20215;-39
2020/12/28 06:54:34;;;;;;;8.07;7.25;;;2.70;99.90;;;;;;4957033;29;20336;-39
2020/12/28 06:57:03;;;;;;;8.57;7.25;;;2.70;99.90;;;;;;4956934;29;20238;-39
2020/12/28 06:59:31;;;;;;;7.57;6.88;;;2.70;99.90;;;;;;4956782;29;20314;-38
2020/12/28 07:01:59;;;;;;;10.73;9.70;;;2.70;99.90;;;;;;4956650;29;20658;-39
2020/12/28 07:04:26;;;;;;;10.87;7.77;;;2.70;99.90;;;;;;4956883;29;20213;-39
2020/12/28 07:06:58;;;;;;;8.50;7.60;;;2.70;99.90;;;;;;4956576;28;20690;-39
2020/12/28 07:09:25;;;;;;;10.67;7.97;;;2.80;99.90;;;;;;4956516;28;20710;-39
2020/12/28 07:11:53;;;;;;;8.70;7.83;;;2.90;99.90;;;;;;4956644;29;20215;-40
2020/12/28 07:14:21;;;;;;;10.00;8.95;;;2.90;99.90;;;;;;4956226;29;20276;-40
2020/12/28 07:16:53;;;;;;;10.32;7.68;;;3.00;99.90;;;;;;4956617;29;20330;-39
2020/12/28 07:19:20;;;;;;;9.07;8.17;;;3.00;99.90;;;;;;4956604;29;20250;-40
2020/12/28 07:21:47;;;;;;;8.98;7.68;;;3.00;99.90;;;;;;4956299;29;20250;-39
2020/12/28 07:24:16;;;;;;;8.77;7.87;;;3.10;99.90;;;;;;4956556;29;20690;-40
2020/12/28 07:26:43;;;;;;;11.93;8.10;;;3.10;99.90;;;;;;4956337;29;20204;-40
2020/12/28 07:29:12;;;;;;;10.57;9.30;;;3.20;99.90;;;;;;4956559;29;20622;-41
2020/12/28 07:31:39;;;;;;;10.93;8.00;;;3.20;99.90;;;;;;4956270;29;20215;-42
2020/12/28 07:34:06;;;;;;;13.13;9.70;;;3.20;99.90;;;;;;4956399;29;20585;-42
2020/12/28 07:36:35;;;;;;;11.70;9.93;;;3.20;99.90;;;;;;4956237;29;20683;-42
2020/12/28 07:39:02;;;;;;;10.53;8.93;;;3.20;99.90;;;;;;4956206;29;20216;-42
2020/12/28 07:41:30;;;;;;;10.03;9.03;;;3.20;99.90;;;;;;4956022;28;20222;-43
2020/12/28 07:43:58;;;;;;;10.13;9.13;;;3.20;99.90;;;;;;4956261;29;20351;-42
2020/12/28 07:46:35;;;;;;;12.40;9.80;;;3.20;99.90;;;;;;4956199;29;20235;-43
2020/12/28 07:49:07;;;;;;;14.73;10.37;;;3.20;99.90;;;;;;4955846;28;20620;-43
2020/12/28 07:51:38;;;;;;;12.07;9.43;;;3.20;99.90;;;;;;4955832;29;20518;-41
2020/12/28 07:54:12;;;;;;;12.00;9.30;;;3.20;99.90;;;;;;4955828;29;20219;-41
2020/12/28 07:56:45;;;;;;;10.05;9.05;;;3.20;99.90;;;;;;4955761;29;20234;-41
2020/12/28 07:59:32;;;;;;;10.45;9.20;;;3.20;99.90;;;;;;4955823;29;20306;-39
2020/12/28 08:02:07;;;;;;;11.43;10.23;;;3.10;99.90;;;;;;4955556;29;20742;-43
2020/12/28 08:04:35;;;;;;;37.83;11.77;;;3.20;99.90;;;;;;4955354;29;20306;-42
2020/12/28 08:07:02;;;;;;;14.57;9.63;;;3.20;99.90;;;;;;4955857;29;20211;-42
2020/12/28 08:09:28;;;;;;;12.45;8.82;;;3.20;99.90;;;;;;4955277;29;20222;-42
2020/12/28 08:12:01;;;;;;;15.68;12.32;;;3.20;99.90;;;;;;4954928;29;20239;-41
2020/12/28 08:14:28;;;;;;;18.40;11.95;;;3.20;99.90;;;;;;4955286;29;20330;-41
2020/12/28 08:16:55;;;;;;;24.10;12.07;;;3.20;99.90;;;;;;4955304;29;20239;-44
2020/12/28 08:19:26;;;;;;;10.73;9.40;;;3.30;99.90;;;;;;4955608;29;20250;-42
2020/12/28 08:21:53;;;;;;;10.63;9.05;;;3.30;99.90;;;;;;4955512;29;20218;-41
2020/12/28 08:24:21;;;;;;;11.13;10.03;;;3.30;99.90;;;;;;4955175;28;20278;-41
2020/12/28 08:26:49;;;;;;;15.13;11.73;;;3.30;99.90;;;;;;4955084;29;20291;-41
2020/12/28 08:29:18;;;;;;;13.13;11.73;;;3.20;99.90;;;;;;4955000;29;20745;-42
2020/12/28 08:31:45;;;;;;;12.60;10.00;;;3.10;99.90;;;;;;4955274;29;20247;-43
2020/12/28 08:34:14;;;;;;;12.00;10.00;;;3.00;99.90;;;;;;4955134;29;20302;-41
2020/12/28 08:36:50;;;;;;;12.53;11.23;;;3.00;99.90;;;;;;4955106;29;20327;-41
2020/12/28 08:39:19;;;;;;;12.07;10.77;;;2.90;99.90;;;;;;4955021;29;20547;-42
2020/12/28 08:41:50;;;;;;;9.55;8.63;;;2.90;99.90;;;;;;4954864;29;20306;-41
2020/12/28 08:44:29;;;;;;;12.43;10.20;;;2.90;99.90;;;;;;4955122;29;20294;-42
2020/12/28 08:47:01;;;;;;;10.23;9.17;;;2.90;99.90;;;;;;4955033;29;20207;-42
2020/12/28 08:49:29;;;;;;;11.93;9.47;;;2.90;99.90;;;;;;4954942;29;20211;-42
2020/12/28 08:52:07;;;;;;;12.00;10.63;;;2.90;99.90;;;;;;4954213;28;20215;-44
2020/12/28 08:54:34;;;;;;;12.83;11.40;;;2.90;99.90;;;;;;4954503;29;20314;-43
2020/12/28 08:57:01;;;;;;;12.52;9.93;;;2.90;99.90;;;;;;4954628;28;20300;-41
2020/12/28 08:59:29;;;;;;;11.13;9.93;;;3.00;99.90;;;;;;4954185;28;20650;-42
2020/12/28 09:01:57;;;;;;;21.90;14.60;;;2.90;99.90;;;;;;4954217;29;20724;-41
2020/12/28 09:04:25;;;;;;;15.80;12.47;;;2.90;99.90;;;;;;4954356;29;20215;-41
2020/12/28 09:06:53;;;;;;;14.93;12.30;;;2.80;99.90;;;;;;4954340;29;20208;-42
2020/12/28 09:09:20;;;;;;;15.27;11.97;;;2.80;99.90;;;;;;4954608;29;20247;-41
2020/12/28 09:11:47;;;;;;;14.07;12.57;;;2.80;99.90;;;;;;4954486;28;20306;-41
2020/12/28 09:14:14;;;;;;;10.27;9.03;;;2.80;99.90;;;;;;4954246;29;20744;-41
2020/12/28 09:16:42;;;;;;;16.00;12.40;;;2.90;99.90;;;;;;4954167;29;20577;-42
2020/12/28 09:19:09;;;;;;;14.83;10.97;;;2.90;99.90;;;;;;4954060;29;20298;-42
2020/12/28 09:21:36;;;;;;;11.47;10.33;;;3.00;99.90;;;;;;4954297;28;20226;-41
2020/12/28 09:24:03;;;;;;;12.60;9.63;;;3.10;99.90;;;;;;4954235;29;20439;-41
2020/12/28 09:26:32;;;;;;;10.83;9.73;;;3.30;99.90;;;;;;4954352;29;20274;-42
2020/12/28 09:28:59;;;;;;;18.03;13.33;;;3.30;99.90;;;;;;4954125;29;20211;-42
2020/12/28 09:31:25;;;;;;;13.43;11.17;;;3.50;99.90;;;;;;4954056;29;20246;-44
2020/12/28 09:33:54;;;;;;;14.90;12.33;;;3.60;99.90;;;;;;4953781;29;20222;-41
2020/12/28 09:36:22;;;;;;;77.53;52.20;;;3.70;99.90;;;;;;4953769;29;20250;-41
2020/12/28 09:38:49;;;;;;;13.77;11.73;;;3.80;99.90;;;;;;4953892;29;20298;-43
2020/12/28 09:41:17;;;;;;;9.93;8.93;;;3.90;99.90;;;;;;4934853;29;20215;-42
2020/12/28 09:43:44;;;;;;;20.47;13.77;;;4.00;99.90;;;;;;4934845;29;20282;-41
2020/12/28 09:46:12;;;;;;;14.37;9.73;;;4.20;99.80;;;;;;4934760;29;20212;-42
2020/12/28 09:48:39;;;;;;;12.90;11.70;;;4.30;99.60;;;;;;4935025;29;20275;-41
2020/12/28 09:51:06;;;;;;;11.40;10.30;;;4.40;99.60;;;;;;4934749;29;20244;-44
2020/12/28 09:53:33;;;;;;;11.70;10.57;;;4.40;99.40;;;;;;4934806;29;20295;-42
2020/12/28 09:56:02;;;;;;;11.23;10.13;;;4.40;99.30;;;;;;4934677;29;20282;-42
2020/12/28 09:58:31;;;;;;;12.88;10.77;;;4.40;99.30;;;;;;4934633;29;20639;-43
2020/12/28 10:00:58;;;;;;;11.97;10.73;;;4.50;99.20;;;;;;4934582;29;20638;-41
2020/12/28 10:03:25;;;;;;;12.30;10.40;;;4.40;99.30;;;;;;4934742;29;20239;-43
2020/12/28 10:05:53;;;;;;;31.60;22.50;;;4.30;99.40;;;;;;4934333;29;20231;-41
2020/12/28 10:08:22;;;;;;;21.10;15.63;;;4.40;99.70;;;;;;4934723;29;20239;-48
2020/12/28 10:10:54;;;;;;;25.03;22.13;;;4.40;99.50;;;;;;4934913;29;20216;-41
2020/12/28 10:13:21;;;;;;;16.47;14.13;;;4.30;99.50;;;;;;4938212;29;20659;-41
2020/12/28 10:15:48;;;;;;;13.00;11.37;;;4.30;99.60;;;;;;4938652;29;20242;-41
2020/12/28 10:18:39;;;;;;;12.77;10.83;;;4.40;99.60;;;;;;4938350;29;20212;-41
2020/12/28 10:21:10;;;;;;;14.85;12.00;;;4.50;99.50;;;;;;4938541;29;20302;-41
2020/12/28 10:23:38;;;;;;;15.43;11.20;;;4.60;99.30;;;;;;4938372;29;20212;-42
2020/12/28 10:26:06;;;;;;;15.93;13.97;;;4.70;99.20;;;;;;4938316;29;20303;-43
2020/12/28 10:28:35;;;;;;;17.07;12.27;;;4.70;99.20;;;;;;4938143;29;20220;-41
2020/12/28 10:31:02;;;;;;;11.67;10.27;;;4.80;99.10;;;;;;4938252;29;20299;-41
2020/12/28 10:33:28;;;;;;;13.67;11.33;;;4.80;99.10;;;;;;4937959;29;20303;-41
2020/12/28 10:35:56;;;;;;;13.05;9.98;;;4.90;99.10;;;;;;4938320;29;20259;-41
2020/12/28 10:38:22;;;;;;;14.15;11.65;;;4.90;99.00;;;;;;4937940;29;20215;-44
2020/12/28 10:40:50;;;;;;;10.70;9.43;;;4.90;98.90;;;;;;4937907;29;20204;-43
2020/12/28 10:43:18;;;;;;;12.18;9.55;;;4.90;99.00;;;;;;4938072;29;20582;-43
2020/12/28 10:45:45;;;;;;;9.98;8.93;;;4.90;99.00;;;;;;4938174;29;20232;-43
2020/12/28 10:48:12;;;;;;;13.60;9.80;;;5.00;99.00;;;;;;4937982;29;20303;-43
2020/12/28 10:50:39;;;;;;;11.10;8.73;;;5.10;98.90;;;;;;4937817;29;20619;-43
2020/12/28 10:53:05;;;;;;;14.25;9.57;;;5.10;98.90;;;;;;4937759;29;20216;-43
2020/12/28 10:55:33;;;;;;;12.23;9.77;;;5.20;98.70;;;;;;4937477;29;20582;-45
2020/12/28 10:58:00;;;;;;;10.50;9.48;;;5.20;98.50;;;;;;4937725;29;20308;-44
2020/12/28 11:00:28;;;;;;;11.55;9.52;;;5.30;98.40;;;;;;4937189;29;20726;-43
2020/12/28 11:02:55;;;;;;;9.85;8.77;;;5.20;98.20;;;;;;4937517;29;20219;-44
2020/12/28 11:05:22;;;;;;;9.82;8.90;;;5.30;98.10;;;;;;4937537;29;20583;-42
2020/12/28 11:07:49;;;;;;;10.27;9.25;;;5.40;98.00;;;;;;4937371;29;20219;-43
2020/12/28 11:10:16;;;;;;;13.57;10.90;;;5.40;97.80;;;;;;4936919;29;20617;-42
2020/12/28 11:12:43;;;;;;;12.07;9.30;;;5.30;97.90;;;;;;4937391;29;20223;-42
2020/12/28 11:15:11;;;;;;;11.60;10.50;;;5.30;97.80;;;;;;4937374;29;20334;-41
2020/12/28 11:17:38;;;;;;;14.30;10.43;;;5.30;97.80;;;;;;4937069;29;20303;-43
2020/12/28 11:20:05;;;;;;;12.77;10.27;;;5.20;97.90;;;;;;4937043;29;20670;-42
2020/12/28 11:22:32;;;;;;;13.53;10.03;;;5.20;98.20;;;;;;4936887;29;20306;-43
2020/12/28 11:24:59;;;;;;;10.68;9.38;;;5.20;98.00;;;;;;4937267;29;20247;-42
2020/12/28 11:27:27;;;;;;;16.35;9.82;;;5.10;98.00;;;;;;4937167;29;20244;-42
2020/12/28 11:29:54;;;;;;;13.35;10.80;;;5.20;98.00;;;;;;4936988;29;20208;-42
2020/12/28 11:32:22;;;;;;;10.50;9.43;;;5.10;97.90;;;;;;4936919;29;20351;-43
2020/12/28 11:34:49;;;;;;;12.38;9.85;;;5.20;98.00;;;;;;4937296;29;20583;-43
2020/12/28 11:37:17;;;;;;;13.60;10.33;;;5.20;97.90;;;;;;4937209;29;20232;-42
2020/12/28 11:39:44;;;;;;;14.30;10.40;;;5.20;97.90;;;;;;4937066;29;20298;-42
2020/12/28 11:42:12;;;;;;;12.93;11.05;;;5.30;97.80;;;;;;4936991;29;20306;-46
2020/12/28 11:44:41;;;;;;;10.70;9.70;;;5.30;97.70;;;;;;4936951;29;20671;-42
2020/12/28 11:47:08;;;;;;;12.05;10.90;;;5.40;97.50;;;;;;4936369;29;20683;-42
2020/12/28 11:49:36;;;;;;;12.40;9.98;;;5.40;97.30;;;;;;4936849;29;20302;-45
2020/12/28 11:52:03;;;;;;;14.02;11.52;;;5.50;97.30;;;;;;4936692;29;20216;-40
2020/12/28 11:54:30;;;;;;;11.57;9.68;;;5.50;97.30;;;;;;4936571;29;20303;-42
2020/12/28 11:56:57;;;;;;;9.98;8.98;;;5.40;97.30;;;;;;4936716;29;20238;-42
2020/12/28 11:59:24;;;;;;;11.20;10.07;;;5.20;97.30;;;;;;4936464;29;20311;-50
2020/12/28 12:01:52;;;;;;;15.20;11.23;;;5.20;97.60;;;;;;4936514;29;20283;-40
2020/12/28 12:04:47;;;;;;;14.02;12.60;;;5.10;97.60;;;;;;4936245;29;20652;-42
2020/12/28 12:07:07;;;;;;;11.60;10.50;;;5.10;97.60;;;;;;4936265;29;20575;-40
2020/12/28 12:09:34;;;;;;;10.82;9.75;;;5.00;97.60;;;;;;4936327;29;20247;-41
2020/12/28 12:12:00;;;;;;;11.70;10.50;;;4.90;97.70;;;;;;4936300;29;20222;-42
2020/12/28 12:14:27;;;;;;;11.70;10.27;;;4.80;97.80;;;;;;4935798;29;20259;-41
2020/12/28 12:16:59;;;;;;;12.50;11.20;;;4.70;98.10;;;;;;4936321;29;20239;-42
2020/12/28 12:19:26;;;;;;;12.95;11.63;;;4.60;98.30;;;;;;4936384;29;20212;-41
2020/12/28 12:21:54;;;;;;;13.23;10.65;;;4.40;98.60;;;;;;4936234;29;20216;-41
2020/12/28 12:24:22;;;;;;;12.85;9.82;;;4.30;98.70;;;;;;4936234;29;20641;-40
2020/12/28 12:26:49;;;;;;;13.55;11.20;;;4.20;98.90;;;;;;4936075;29;20208;-43
2020/12/28 12:29:16;;;;;;;31.77;24.13;;;4.20;98.90;;;;;;4936232;29;20703;-42
2020/12/28 12:31:43;;;;;;;18.77;16.70;;;4.20;99.00;;;;;;4935915;29;20208;-42
2020/12/28 12:34:13;;;;;;;16.02;13.00;;;4.30;99.00;;;;;;4935073;29;20216;-41
2020/12/28 12:36:40;;;;;;;13.60;11.20;;;4.40;98.90;;;;;;4936074;29;20318;-41
2020/12/28 12:39:07;;;;;;;16.90;11.90;;;4.50;98.80;;;;;;4935730;29;20627;-41
2020/12/28 12:41:36;;;;;;;14.15;11.98;;;4.50;98.70;;;;;;4935944;29;20698;-41
2020/12/28 12:44:03;;;;;;;13.40;12.02;;;4.60;98.60;;;;;;4935881;29;20224;-41
2020/12/28 12:46:30;;;;;;;14.15;11.77;;;4.70;98.60;;;;;;4935975;29;20303;-42
2020/12/28 12:48:57;;;;;;;14.47;11.97;;;4.70;98.40;;;;;;4935728;29;20208;-43
2020/12/28 12:51:24;;;;;;;12.20;10.13;;;4.70;98.40;;;;;;4935423;29;20220;-42